sensor_id;sensor_type;location;lat;lon;timestamp;temperature;humidity
8664;DHT22;4369;47.842;13.096;2023-07-31T03:14:58;16.10;99.90
8664;DHT22;4369;47.842;13.096;2023-07-31T03:17:26;16.00;99.90
8664;DHT22;4369;47.842;13.096;2023-07-31T03:19:54;16.10;99.90
8664;DHT22;4369;47.842;13.096;2023-07-31T03:22:35;16.10;99.90
8664;DHT22;4369;47.842;13.096;2023-07-31T03:25:02;16.00;99.90
8664;DHT22;4369;47.842;13.096;2023-07-31T03:27:28;16.00;99.90
8664;DHT22;4369;47.842;13.096;2023-07-31T03:29:55;16.00;99.90
8664;DHT22;4369;47.842;13.096;2023-07-31T03:32:24;16.00;99.90
8664;DHT22;4369;47.842;13.096;2023-07-31T03:34:50;15.90;99.90
8664;DHT22;4369;47.842;13.096;2023-07-31T03:37:17;15.90;99.90
8664;DHT22;4369;47.842;13.096;2023-07-31T03:39:44;15.80;99.90
8664;DHT22;4369;47.842;13.096;2023-07-31T03:42:11;15.70;99.90
8664;DHT22;4369;47.842;13.096;2023-07-31T03:44:38;15.70;99.90
8664;DHT22;4369;47.842;13.096;2023-07-31T03:47:05;15.60;99.90
8664;DHT22;4369;47.842;13.096;2023-07-31T03:49:33;15.60;99.90
8664;DHT22;4369;47.842;13.096;2023-07-31T03:52:03;15.60;99.90
8664;DHT22;4369;47.842;13.096;2023-07-31T04:01:03;15.60;99.90
8664;DHT22;4369;47.842;13.096;2023-07-31T04:03:30;15.50;99.90
8664;DHT22;4369;47.842;13.096;2023-07-31T04:05:58;15.50;99.90
8664;DHT22;4369;47.842;13.096;2023-07-31T04:08:25;15.50;99.90
8664;DHT22;4369;47.842;13.096;2023-07-31T04:10:52;15.60;99.90
8664;DHT22;4369;47.842;13.096;2023-07-31T04:13:19;15.50;99.90
8664;DHT22;4369;47.842;13.096;2023-07-31T04:15:48;15.50;99.90
8664;DHT22;4369;47.842;13.096;2023-07-31T04:18:16;15.50;99.90
8664;DHT22;4369;47.842;13.096;2023-07-31T04:20:43;15.50;99.90
8664;DHT22;4369;47.842;13.096;2023-07-31T04:23:12;15.50;99.90
8664;DHT22;4369;47.842;13.096;2023-07-31T04:25:38;15.50;99.90
8664;DHT22;4369;47.842;13.096;2023-07-31T04:28:05;15.50;99.90
8664;DHT22;4369;47.842;13.096;2023-07-31T04:30:33;15.60;99.90
8664;DHT22;4369;47.842;13.096;2023-07-31T04:33:00;15.60;99.90
8664;DHT22;4369;47.842;13.096;2023-07-31T04:35:28;15.70;99.90
8664;DHT22;4369;47.842;13.096;2023-07-31T04:37:55;15.70;99.90
8664;DHT22;4369;47.842;13.096;2023-07-31T04:40:24;15.70;99.90
8664;DHT22;4369;47.842;13.096;2023-07-31T04:42:51;15.80;99.90
8664;DHT22;4369;47.842;13.096;2023-07-31T04:45:17;15.90;99.90
8664;DHT22;4369;47.842;13.096;2023-07-31T04:47:44;15.90;99.90
8664;DHT22;4369;47.842;13.096;2023-07-31T04:53:34;16.00;99.90
8664;DHT22;4369;47.842;13.096;2023-07-31T04:56:03;16.10;99.90
8664;DHT22;4369;47.842;13.096;2023-07-31T04:58:31;16.20;99.90
8664;DHT22;4369;47.842;13.096;2023-07-31T05:00:58;16.30;99.90
8664;DHT22;4369;47.842;13.096;2023-07-31T05:03:25;16.30;99.90
8664;DHT22;4369;47.842;13.096;2023-07-31T05:05:52;16.30;99.90
8664;DHT22;4369;47.842;13.096;2023-07-31T05:08:19;16.40;99.90
8664;DHT22;4369;47.842;13.096;2023-07-31T05:10:45;16.50;99.90
8664;DHT22;4369;47.842;13.096;2023-07-31T05:13:14;16.60;99.90
8664;DHT22;4369;47.842;13.096;2023-07-31T05:15:41;16.80;99.90
8664;DHT22;4369;47.842;13.096;2023-07-31T05:18:08;16.90;99.90
8664;DHT22;4369;47.842;13.096;2023-07-31T05:20:37;16.90;99.90
8664;DHT22;4369;47.842;13.096;2023-07-31T05:23:03;17.10;99.90
8664;DHT22;4369;47.842;13.096;2023-07-31T05:25:30;17.20;99.90
8664;DHT22;4369;47.842;13.096;2023-07-31T05:30:24;17.30;99.90
8664;DHT22;4369;47.842;13.096;2023-07-31T05:35:17;17.70;99.90
8664;DHT22;4369;47.842;13.096;2023-07-31T05:37:44;17.80;99.90
8664;DHT22;4369;47.842;13.096;2023-07-31T05:40:11;17.80;99.90
8664;DHT22;4369;47.842;13.096;2023-07-31T05:42:38;17.90;99.90
8664;DHT22;4369;47.842;13.096;2023-07-31T05:45:06;17.90;99.90
8664;DHT22;4369;47.842;13.096;2023-07-31T05:47:34;17.90;99.90
8664;DHT22;4369;47.842;13.096;2023-07-31T05:50:01;18.00;99.90
8664;DHT22;4369;47.842;13.096;2023-07-31T05:52:28;17.90;99.90
8664;DHT22;4369;47.842;13.096;2023-07-31T05:54:55;18.00;99.90
8664;DHT22;4369;47.842;13.096;2023-07-31T05:57:22;18.10;99.90
8664;DHT22;4369;47.842;13.096;2023-07-31T05:59:49;18.10;99.90
8664;DHT22;4369;47.842;13.096;2023-07-31T06:02:16;18.10;99.90
8664;DHT22;4369;47.842;13.096;2023-07-31T06:04:44;18.20;99.90
8664;DHT22;4369;47.842;13.096;2023-07-31T06:07:11;18.20;99.90
8664;DHT22;4369;47.842;13.096;2023-07-31T06:09:37;18.20;99.90
8664;DHT22;4369;47.842;13.096;2023-07-31T06:12:05;18.20;99.90
8664;DHT22;4369;47.842;13.096;2023-07-31T06:14:32;18.30;99.90
8664;DHT22;4369;47.842;13.096;2023-07-31T06:16:59;18.30;99.90
8664;DHT22;4369;47.842;13.096;2023-07-31T06:19:26;18.30;99.90
8664;DHT22;4369;47.842;13.096;2023-07-31T06:21:54;18.30;99.90
8664;DHT22;4369;47.842;13.096;2023-07-31T06:24:21;18.30;99.90
8664;DHT22;4369;47.842;13.096;2023-07-31T06:26:48;18.40;99.90
8664;DHT22;4369;47.842;13.096;2023-07-31T06:29:16;18.50;99.90
8664;DHT22;4369;47.842;13.096;2023-07-31T06:31:43;18.50;99.90
8664;DHT22;4369;47.842;13.096;2023-07-31T06:34:10;18.50;99.90
8664;DHT22;4369;47.842;13.096;2023-07-31T06:36:37;18.60;99.90
8664;DHT22;4369;47.842;13.096;2023-07-31T06:39:05;18.70;99.90
8664;DHT22;4369;47.842;13.096;2023-07-31T06:41:33;18.80;99.90
8664;DHT22;4369;47.842;13.096;2023-07-31T06:43:59;18.80;99.90
8664;DHT22;4369;47.842;13.096;2023-07-31T06:46:26;18.80;99.90
8664;DHT22;4369;47.842;13.096;2023-07-31T06:48:53;18.80;99.90
8664;DHT22;4369;47.842;13.096;2023-07-31T06:51:20;18.90;99.90
8664;DHT22;4369;47.842;13.096;2023-07-31T06:53:47;18.80;76.10
8664;DHT22;4369;47.842;13.096;2023-07-31T06:56:15;19.00;98.40
8664;DHT22;4369;47.842;13.096;2023-07-31T06:58:42;19.20;85.70
8664;DHT22;4369;47.842;13.096;2023-07-31T07:01:09;19.30;62.70
8664;DHT22;4369;47.842;13.096;2023-07-31T07:03:36;19.30;66.90
8664;DHT22;4369;47.842;13.096;2023-07-31T07:06:03;19.40;76.50
8664;DHT22;4369;47.842;13.096;2023-07-31T07:08:30;19.50;68.20
8664;DHT22;4369;47.842;13.096;2023-07-31T07:10:56;19.40;66.40
8664;DHT22;4369;47.842;13.096;2023-07-31T07:13:25;19.50;45.80
8664;DHT22;4369;47.842;13.096;2023-07-31T07:15:52;19.60;28.40
8664;DHT22;4369;47.842;13.096;2023-07-31T07:18:19;19.60;25.70
8664;DHT22;4369;47.842;13.096;2023-07-31T07:20:47;19.80;40.10
8664;DHT22;4369;47.842;13.096;2023-07-31T07:23:14;19.90;64.60
8664;DHT22;4369;47.842;13.096;2023-07-31T07:25:41;20.00;46.90
8664;DHT22;4369;47.842;13.096;2023-07-31T07:28:08;20.00;1.00
8664;DHT22;4369;47.842;13.096;2023-07-31T07:30:36;20.10;1.00
8664;DHT22;4369;47.842;13.096;2023-07-31T07:33:03;20.10;7.10
8664;DHT22;4369;47.842;13.096;2023-07-31T07:35:32;20.30;1.00
8664;DHT22;4369;47.842;13.096;2023-07-31T07:37:59;20.40;1.00
8664;DHT22;4369;47.842;13.096;2023-07-31T07:40:26;20.60;99.90
8664;DHT22;4369;47.842;13.096;2023-07-31T07:42:53;20.70;1.00
8664;DHT22;4369;47.842;13.096;2023-07-31T07:45:20;20.80;1.00
8664;DHT22;4369;47.842;13.096;2023-07-31T07:47:48;21.00;1.00
8664;DHT22;4369;47.842;13.096;2023-07-31T07:50:15;21.20;1.00
8664;DHT22;4369;47.842;13.096;2023-07-31T07:52:41;21.30;1.00
8664;DHT22;4369;47.842;13.096;2023-07-31T07:55:08;21.20;1.00
8664;DHT22;4369;47.842;13.096;2023-07-31T07:57:35;21.30;1.00
8664;DHT22;4369;47.842;13.096;2023-07-31T08:00:03;21.30;1.00
8664;DHT22;4369;47.842;13.096;2023-07-31T08:02:30;21.30;1.00
8664;DHT22;4369;47.842;13.096;2023-07-31T08:04:59;21.40;1.00
8664;DHT22;4369;47.842;13.096;2023-07-31T08:07:26;21.60;1.00
8664;DHT22;4369;47.842;13.096;2023-07-31T08:09:53;21.70;1.00
8664;DHT22;4369;47.842;13.096;2023-07-31T08:12:19;21.90;1.00
8664;DHT22;4369;47.842;13.096;2023-07-31T08:14:46;22.10;1.00
8664;DHT22;4369;47.842;13.096;2023-07-31T08:17:13;22.20;1.00
8664;DHT22;4369;47.842;13.096;2023-07-31T08:19:40;22.40;1.00
8664;DHT22;4369;47.842;13.096;2023-07-31T08:22:08;22.30;1.00
8664;DHT22;4369;47.842;13.096;2023-07-31T08:24:35;22.40;1.00
8664;DHT22;4369;47.842;13.096;2023-07-31T08:27:02;22.60;1.00
8664;DHT22;4369;47.842;13.096;2023-07-31T08:29:29;22.70;1.00
8664;DHT22;4369;47.842;13.096;2023-07-31T08:31:58;22.90;1.00
8664;DHT22;4369;47.842;13.096;2023-07-31T08:34:25;22.90;1.00
8664;DHT22;4369;47.842;13.096;2023-07-31T08:36:52;22.80;1.00
8664;DHT22;4369;47.842;13.096;2023-07-31T08:39:21;22.90;1.00
8664;DHT22;4369;47.842;13.096;2023-07-31T08:41:48;22.80;1.00
8664;DHT22;4369;47.842;13.096;2023-07-31T08:44:15;22.90;1.00
8664;DHT22;4369;47.842;13.096;2023-07-31T08:46:44;22.80;1.00
8664;DHT22;4369;47.842;13.096;2023-07-31T08:49:13;22.60;1.00
8664;DHT22;4369;47.842;13.096;2023-07-31T08:51:41;22.50;1.00
8664;DHT22;4369;47.842;13.096;2023-07-31T08:54:08;22.50;1.00
8664;DHT22;4369;47.842;13.096;2023-07-31T08:56:37;22.50;1.00
8664;DHT22;4369;47.842;13.096;2023-07-31T08:59:04;22.60;1.00
8664;DHT22;4369;47.842;13.096;2023-07-31T09:01:36;22.60;1.00
8664;DHT22;4369;47.842;13.096;2023-07-31T09:04:06;22.40;1.00
8664;DHT22;4369;47.842;13.096;2023-07-31T09:06:34;22.50;1.00
8664;DHT22;4369;47.842;13.096;2023-07-31T09:09:01;22.60;1.00
8664;DHT22;4369;47.842;13.096;2023-07-31T09:11:28;22.70;1.00
8664;DHT22;4369;47.842;13.096;2023-07-31T09:13:58;23.00;1.00
8664;DHT22;4369;47.842;13.096;2023-07-31T09:16:28;23.00;1.00
8664;DHT22;4369;47.842;13.096;2023-07-31T09:18:57;23.30;1.00
8664;DHT22;4369;47.842;13.096;2023-07-31T09:21:27;23.50;1.00
8664;DHT22;4369;47.842;13.096;2023-07-31T09:23:54;23.60;1.00
8664;DHT22;4369;47.842;13.096;2023-07-31T09:26:31;23.70;1.00
8664;DHT22;4369;47.842;13.096;2023-07-31T09:29:01;23.70;1.00
8664;DHT22;4369;47.842;13.096;2023-07-31T09:31:39;23.70;1.00
8664;DHT22;4369;47.842;13.096;2023-07-31T09:34:06;23.40;1.00
8664;DHT22;4369;47.842;13.096;2023-07-31T09:36:40;23.40;1.00
8664;DHT22;4369;47.842;13.096;2023-07-31T09:39:09;23.00;1.00
8664;DHT22;4369;47.842;13.096;2023-07-31T09:41:36;23.10;1.00
8664;DHT22;4369;47.842;13.096;2023-07-31T09:44:05;23.10;1.00
8664;DHT22;4369;47.842;13.096;2023-07-31T09:46:35;23.00;1.00
8664;DHT22;4369;47.842;13.096;2023-07-31T09:49:07;23.00;1.00
8664;DHT22;4369;47.842;13.096;2023-07-31T09:51:35;23.10;1.00
8664;DHT22;4369;47.842;13.096;2023-07-31T09:54:08;23.20;1.00
8664;DHT22;4369;47.842;13.096;2023-07-31T09:56:37;23.30;1.00
8664;DHT22;4369;47.842;13.096;2023-07-31T09:59:08;23.10;1.00
8664;DHT22;4369;47.842;13.096;2023-07-31T10:01:37;23.30;1.00
8664;DHT22;4369;47.842;13.096;2023-07-31T10:04:05;23.60;1.00
8664;DHT22;4369;47.842;13.096;2023-07-31T10:06:34;23.80;1.00
8664;DHT22;4369;47.842;13.096;2023-07-31T10:09:02;23.90;1.00
8664;DHT22;4369;47.842;13.096;2023-07-31T10:11:30;24.40;1.00
8664;DHT22;4369;47.842;13.096;2023-07-31T10:14:00;24.70;1.00
8664;DHT22;4369;47.842;13.096;2023-07-31T10:16:30;24.90;1.00
8664;DHT22;4369;47.842;13.096;2023-07-31T10:18:57;24.90;1.00
8664;DHT22;4369;47.842;13.096;2023-07-31T10:21:24;24.80;1.00
8664;DHT22;4369;47.842;13.096;2023-07-31T10:23:51;24.90;1.00
8664;DHT22;4369;47.842;13.096;2023-07-31T10:26:19;25.10;1.00
8664;DHT22;4369;47.842;13.096;2023-07-31T10:28:47;25.10;1.00
8664;DHT22;4369;47.842;13.096;2023-07-31T10:31:16;25.20;1.00
8664;DHT22;4369;47.842;13.096;2023-07-31T10:33:44;25.20;1.00
8664;DHT22;4369;47.842;13.096;2023-07-31T10:36:16;25.40;1.00
8664;DHT22;4369;47.842;13.096;2023-07-31T10:38:43;25.60;1.00
8664;DHT22;4369;47.842;13.096;2023-07-31T10:41:10;25.70;1.00
8664;DHT22;4369;47.842;13.096;2023-07-31T10:43:37;25.60;1.00
8664;DHT22;4369;47.842;13.096;2023-07-31T10:46:08;25.60;1.00
8664;DHT22;4369;47.842;13.096;2023-07-31T10:48:35;25.60;1.00
8664;DHT22;4369;47.842;13.096;2023-07-31T10:51:09;25.60;1.00
8664;DHT22;4369;47.842;13.096;2023-07-31T10:53:37;25.60;1.00
8664;DHT22;4369;47.842;13.096;2023-07-31T10:56:05;25.40;1.00
8664;DHT22;4369;47.842;13.096;2023-07-31T10:58:32;25.50;1.00
8664;DHT22;4369;47.842;13.096;2023-07-31T11:01:02;25.60;1.00
8664;DHT22;4369;47.842;13.096;2023-07-31T11:03:41;25.50;1.00
8664;DHT22;4369;47.842;13.096;2023-07-31T11:06:10;25.40;1.00
8664;DHT22;4369;47.842;13.096;2023-07-31T11:08:42;25.50;1.00
8664;DHT22;4369;47.842;13.096;2023-07-31T11:11:11;25.60;1.00
8664;DHT22;4369;47.842;13.096;2023-07-31T11:13:42;25.70;1.00
8664;DHT22;4369;47.842;13.096;2023-07-31T11:16:11;26.00;1.00
8664;DHT22;4369;47.842;13.096;2023-07-31T11:18:39;26.30;1.00
8664;DHT22;4369;47.842;13.096;2023-07-31T11:21:07;25.90;1.00
8664;DHT22;4369;47.842;13.096;2023-07-31T11:23:37;25.80;1.00
8664;DHT22;4369;47.842;13.096;2023-07-31T11:26:05;25.90;1.00
8664;DHT22;4369;47.842;13.096;2023-07-31T11:28:34;26.30;1.00
8664;DHT22;4369;47.842;13.096;2023-07-31T11:31:02;26.80;1.00
8664;DHT22;4369;47.842;13.096;2023-07-31T11:33:29;27.30;1.00
8664;DHT22;4369;47.842;13.096;2023-07-31T11:35:56;27.70;1.00
8664;DHT22;4369;47.842;13.096;2023-07-31T11:38:23;27.60;1.00
8664;DHT22;4369;47.842;13.096;2023-07-31T11:40:52;27.20;1.00
8664;DHT22;4369;47.842;13.096;2023-07-31T11:43:20;27.40;1.00
8664;DHT22;4369;47.842;13.096;2023-07-31T11:45:48;27.60;1.00
8664;DHT22;4369;47.842;13.096;2023-07-31T11:48:19;27.70;1.00
8664;DHT22;4369;47.842;13.096;2023-07-31T11:50:48;28.20;1.00
8664;DHT22;4369;47.842;13.096;2023-07-31T11:53:18;28.50;1.00
8664;DHT22;4369;47.842;13.096;2023-07-31T11:55:45;28.70;1.00
8664;DHT22;4369;47.842;13.096;2023-07-31T11:58:15;28.30;1.00
8664;DHT22;4369;47.842;13.096;2023-07-31T12:00:43;28.40;1.00
8664;DHT22;4369;47.842;13.096;2023-07-31T12:03:10;28.70;1.00
8664;DHT22;4369;47.842;13.096;2023-07-31T12:05:37;28.60;1.00
8664;DHT22;4369;47.842;13.096;2023-07-31T12:08:09;28.70;1.00
8664;DHT22;4369;47.842;13.096;2023-07-31T12:10:37;28.70;1.00
8664;DHT22;4369;47.842;13.096;2023-07-31T12:13:07;28.80;1.00
8664;DHT22;4369;47.842;13.096;2023-07-31T12:15:42;28.70;1.00
8664;DHT22;4369;47.842;13.096;2023-07-31T12:18:11;28.80;1.00
8664;DHT22;4369;47.842;13.096;2023-07-31T12:20:43;29.00;1.00
8664;DHT22;4369;47.842;13.096;2023-07-31T12:23:18;28.30;1.00
8664;DHT22;4369;47.842;13.096;2023-07-31T12:26:00;28.70;1.00
8664;DHT22;4369;47.842;13.096;2023-07-31T12:28:27;28.70;1.00
8664;DHT22;4369;47.842;13.096;2023-07-31T12:30:59;29.20;1.00
8664;DHT22;4369;47.842;13.096;2023-07-31T12:33:31;29.50;1.00
8664;DHT22;4369;47.842;13.096;2023-07-31T12:36:00;29.90;1.00
8664;DHT22;4369;47.842;13.096;2023-07-31T12:38:27;30.00;1.00
8664;DHT22;4369;47.842;13.096;2023-07-31T12:40:54;29.90;1.00
8664;DHT22;4369;47.842;13.096;2023-07-31T12:43:21;29.10;1.00
8664;DHT22;4369;47.842;13.096;2023-07-31T12:45:49;28.40;1.00
8664;DHT22;4369;47.842;13.096;2023-07-31T12:48:17;28.40;1.00
8664;DHT22;4369;47.842;13.096;2023-07-31T12:50:44;28.30;1.00
8664;DHT22;4369;47.842;13.096;2023-07-31T12:53:11;28.10;1.00
8664;DHT22;4369;47.842;13.096;2023-07-31T12:55:38;28.30;1.00
8664;DHT22;4369;47.842;13.096;2023-07-31T12:58:04;28.40;1.00
8664;DHT22;4369;47.842;13.096;2023-07-31T13:00:31;28.50;1.00
8664;DHT22;4369;47.842;13.096;2023-07-31T13:02:59;28.60;1.00
8664;DHT22;4369;47.842;13.096;2023-07-31T13:05:27;28.40;1.00
8664;DHT22;4369;47.842;13.096;2023-07-31T13:07:54;28.30;1.00
8664;DHT22;4369;47.842;13.096;2023-07-31T13:10:22;28.30;1.00
8664;DHT22;4369;47.842;13.096;2023-07-31T13:12:49;28.60;1.00
8664;DHT22;4369;47.842;13.096;2023-07-31T13:15:16;28.80;1.00
8664;DHT22;4369;47.842;13.096;2023-07-31T13:17:43;29.30;1.00
8664;DHT22;4369;47.842;13.096;2023-07-31T13:20:10;29.90;1.00
8664;DHT22;4369;47.842;13.096;2023-07-31T13:22:38;30.00;1.00
8664;DHT22;4369;47.842;13.096;2023-07-31T13:25:06;30.30;1.00
8664;DHT22;4369;47.842;13.096;2023-07-31T13:27:34;30.50;1.00
8664;DHT22;4369;47.842;13.096;2023-07-31T13:30:01;30.70;1.00
8664;DHT22;4369;47.842;13.096;2023-07-31T13:32:29;30.70;1.00
8664;DHT22;4369;47.842;13.096;2023-07-31T13:34:55;30.70;1.00
8664;DHT22;4369;47.842;13.096;2023-07-31T13:37:22;31.80;1.00
8664;DHT22;4369;47.842;13.096;2023-07-31T13:39:50;32.80;1.00
8664;DHT22;4369;47.842;13.096;2023-07-31T13:42:17;33.80;1.00
8664;DHT22;4369;47.842;13.096;2023-07-31T13:44:44;34.30;1.00
8664;DHT22;4369;47.842;13.096;2023-07-31T13:47:11;34.70;1.00
8664;DHT22;4369;47.842;13.096;2023-07-31T13:49:38;34.80;1.00
8664;DHT22;4369;47.842;13.096;2023-07-31T13:52:06;35.10;1.00
8664;DHT22;4369;47.842;13.096;2023-07-31T13:54:33;35.60;1.00
8664;DHT22;4369;47.842;13.096;2023-07-31T13:57:01;36.40;1.00
8664;DHT22;4369;47.842;13.096;2023-07-31T13:59:29;38.30;1.00
8664;DHT22;4369;47.842;13.096;2023-07-31T14:01:56;39.90;1.00
8664;DHT22;4369;47.842;13.096;2023-07-31T14:04:23;41.30;1.00
8664;DHT22;4369;47.842;13.096;2023-07-31T14:06:49;42.30;1.00
8664;DHT22;4369;47.842;13.096;2023-07-31T14:09:16;45.00;1.00
8664;DHT22;4369;47.842;13.096;2023-07-31T14:11:44;46.90;1.00
8664;DHT22;4369;47.842;13.096;2023-07-31T14:14:12;48.30;1.00
8664;DHT22;4369;47.842;13.096;2023-07-31T14:16:39;48.90;1.00
8664;DHT22;4369;47.842;13.096;2023-07-31T14:19:06;49.70;1.00
8664;DHT22;4369;47.842;13.096;2023-07-31T14:21:34;49.90;1.00
8664;DHT22;4369;47.842;13.096;2023-07-31T14:24:01;50.20;1.00
8664;DHT22;4369;47.842;13.096;2023-07-31T14:26:27;48.10;1.00
8664;DHT22;4369;47.842;13.096;2023-07-31T14:28:54;44.70;1.00
8664;DHT22;4369;47.842;13.096;2023-07-31T14:31:23;42.80;1.00
8664;DHT22;4369;47.842;13.096;2023-07-31T14:33:49;41.70;1.00
8664;DHT22;4369;47.842;13.096;2023-07-31T14:36:16;41.50;1.00
8664;DHT22;4369;47.842;13.096;2023-07-31T14:38:43;40.60;1.00
8664;DHT22;4369;47.842;13.096;2023-07-31T14:41:10;40.00;1.00
8664;DHT22;4369;47.842;13.096;2023-07-31T14:43:37;39.00;1.00
8664;DHT22;4369;47.842;13.096;2023-07-31T14:46:04;39.80;1.00
8664;DHT22;4369;47.842;13.096;2023-07-31T14:48:33;40.30;1.00
8664;DHT22;4369;47.842;13.096;2023-07-31T14:51:00;40.70;1.00
8664;DHT22;4369;47.842;13.096;2023-07-31T14:53:27;41.10;1.00
8664;DHT22;4369;47.842;13.096;2023-07-31T14:55:54;41.60;1.00
8664;DHT22;4369;47.842;13.096;2023-07-31T14:58:21;41.70;1.00
8664;DHT22;4369;47.842;13.096;2023-07-31T15:00:48;42.00;1.00
8664;DHT22;4369;47.842;13.096;2023-07-31T15:03:15;42.20;1.00
8664;DHT22;4369;47.842;13.096;2023-07-31T15:05:43;42.30;1.00
8664;DHT22;4369;47.842;13.096;2023-07-31T15:08:10;41.40;1.00
8664;DHT22;4369;47.842;13.096;2023-07-31T15:10:37;41.00;1.00
8664;DHT22;4369;47.842;13.096;2023-07-31T15:13:04;40.80;1.00
8664;DHT22;4369;47.842;13.096;2023-07-31T15:15:30;40.80;1.00
8664;DHT22;4369;47.842;13.096;2023-07-31T15:17:57;41.20;1.00
8664;DHT22;4369;47.842;13.096;2023-07-31T15:20:24;40.20;1.00
8664;DHT22;4369;47.842;13.096;2023-07-31T15:22:52;39.50;1.00
8664;DHT22;4369;47.842;13.096;2023-07-31T15:25:19;37.60;1.00
8664;DHT22;4369;47.842;13.096;2023-07-31T15:27:46;37.10;1.00
8664;DHT22;4369;47.842;13.096;2023-07-31T15:30:13;36.80;1.00
8664;DHT22;4369;47.842;13.096;2023-07-31T15:32:40;36.20;1.00
8664;DHT22;4369;47.842;13.096;2023-07-31T15:35:07;35.90;1.00
8664;DHT22;4369;47.842;13.096;2023-07-31T15:37:34;36.30;1.00
8664;DHT22;4369;47.842;13.096;2023-07-31T15:40:03;36.50;1.00
8664;DHT22;4369;47.842;13.096;2023-07-31T15:42:30;35.80;1.00
8664;DHT22;4369;47.842;13.096;2023-07-31T15:44:59;35.60;1.00
8664;DHT22;4369;47.842;13.096;2023-07-31T15:47:26;35.30;1.00
8664;DHT22;4369;47.842;13.096;2023-07-31T15:49:52;35.20;1.00
8664;DHT22;4369;47.842;13.096;2023-07-31T15:52:19;35.00;1.00
8664;DHT22;4369;47.842;13.096;2023-07-31T15:54:46;34.30;1.00
8664;DHT22;4369;47.842;13.096;2023-07-31T15:57:15;34.20;1.00
8664;DHT22;4369;47.842;13.096;2023-07-31T15:59:42;34.00;1.00
8664;DHT22;4369;47.842;13.096;2023-07-31T16:02:09;33.30;1.00
8664;DHT22;4369;47.842;13.096;2023-07-31T16:04:37;32.80;1.00
8664;DHT22;4369;47.842;13.096;2023-07-31T16:07:04;33.20;1.00
8664;DHT22;4369;47.842;13.096;2023-07-31T16:09:31;33.10;1.00
8664;DHT22;4369;47.842;13.096;2023-07-31T16:11:57;33.10;1.00
8664;DHT22;4369;47.842;13.096;2023-07-31T16:14:26;32.90;1.00
8664;DHT22;4369;47.842;13.096;2023-07-31T16:16:52;32.50;1.00
8664;DHT22;4369;47.842;13.096;2023-07-31T16:19:19;32.00;1.00
8664;DHT22;4369;47.842;13.096;2023-07-31T16:21:46;31.60;1.00
8664;DHT22;4369;47.842;13.096;2023-07-31T16:24:13;31.30;1.00
8664;DHT22;4369;47.842;13.096;2023-07-31T16:26:40;30.80;1.00
8664;DHT22;4369;47.842;13.096;2023-07-31T16:29:07;30.70;1.00
8664;DHT22;4369;47.842;13.096;2023-07-31T16:31:35;30.80;1.00
8664;DHT22;4369;47.842;13.096;2023-07-31T16:34:02;30.70;1.00
8664;DHT22;4369;47.842;13.096;2023-07-31T16:36:29;30.50;1.00
8664;DHT22;4369;47.842;13.096;2023-07-31T16:38:55;29.70;1.00
8664;DHT22;4369;47.842;13.096;2023-07-31T16:41:22;29.60;1.00
8664;DHT22;4369;47.842;13.096;2023-07-31T16:43:49;29.50;1.00
8664;DHT22;4369;47.842;13.096;2023-07-31T16:46:16;29.30;1.00
8664;DHT22;4369;47.842;13.096;2023-07-31T16:48:44;28.70;1.00
8664;DHT22;4369;47.842;13.096;2023-07-31T16:51:11;28.30;1.00
8664;DHT22;4369;47.842;13.096;2023-07-31T16:53:39;28.20;1.00
8664;DHT22;4369;47.842;13.096;2023-07-31T16:56:06;28.20;1.00
8664;DHT22;4369;47.842;13.096;2023-07-31T16:58:33;28.20;1.00
8664;DHT22;4369;47.842;13.096;2023-07-31T17:01:00;27.80;1.00
8664;DHT22;4369;47.842;13.096;2023-07-31T17:03:26;27.30;1.00
8664;DHT22;4369;47.842;13.096;2023-07-31T17:05:55;27.20;1.00
8664;DHT22;4369;47.842;13.096;2023-07-31T17:08:22;27.00;1.00
8664;DHT22;4369;47.842;13.096;2023-07-31T17:10:49;26.90;1.00
8664;DHT22;4369;47.842;13.096;2023-07-31T17:13:15;26.70;1.00
8664;DHT22;4369;47.842;13.096;2023-07-31T17:15:42;26.50;1.00
8664;DHT22;4369;47.842;13.096;2023-07-31T17:18:09;26.40;1.00
8664;DHT22;4369;47.842;13.096;2023-07-31T17:20:36;26.20;1.00
8664;DHT22;4369;47.842;13.096;2023-07-31T17:23:04;26.20;1.00
8664;DHT22;4369;47.842;13.096;2023-07-31T17:25:31;26.10;1.00
8664;DHT22;4369;47.842;13.096;2023-07-31T17:27:58;26.10;1.00
8664;DHT22;4369;47.842;13.096;2023-07-31T17:30:25;26.00;1.00
8664;DHT22;4369;47.842;13.096;2023-07-31T17:32:52;25.90;1.00
8664;DHT22;4369;47.842;13.096;2023-07-31T17:35:19;25.80;1.00
8664;DHT22;4369;47.842;13.096;2023-07-31T17:37:46;25.70;1.00
8664;DHT22;4369;47.842;13.096;2023-07-31T17:40:14;25.70;1.00
8664;DHT22;4369;47.842;13.096;2023-07-31T17:42:41;25.50;1.00
8664;DHT22;4369;47.842;13.096;2023-07-31T17:45:09;25.40;1.00
8664;DHT22;4369;47.842;13.096;2023-07-31T17:47:35;25.30;1.00
8664;DHT22;4369;47.842;13.096;2023-07-31T17:50:03;25.10;1.00
8664;DHT22;4369;47.842;13.096;2023-07-31T17:52:30;25.00;1.00
8664;DHT22;4369;47.842;13.096;2023-07-31T17:54:56;24.90;1.00
8664;DHT22;4369;47.842;13.096;2023-07-31T17:57:25;24.70;1.00
8664;DHT22;4369;47.842;13.096;2023-07-31T17:59:52;24.60;1.00
8664;DHT22;4369;47.842;13.096;2023-07-31T18:02:18;24.50;1.00
8664;DHT22;4369;47.842;13.096;2023-07-31T18:04:46;24.40;1.00
8664;DHT22;4369;47.842;13.096;2023-07-31T18:07:13;24.40;1.00
8664;DHT22;4369;47.842;13.096;2023-07-31T18:09:39;24.30;1.00
8664;DHT22;4369;47.842;13.096;2023-07-31T18:12:07;24.20;1.00
8664;DHT22;4369;47.842;13.096;2023-07-31T18:14:36;24.10;1.00
8664;DHT22;4369;47.842;13.096;2023-07-31T18:17:05;24.10;1.00
8664;DHT22;4369;47.842;13.096;2023-07-31T18:19:32;24.00;1.00
8664;DHT22;4369;47.842;13.096;2023-07-31T18:21:59;23.80;1.00
8664;DHT22;4369;47.842;13.096;2023-07-31T18:24:26;23.80;1.00
8664;DHT22;4369;47.842;13.096;2023-07-31T18:26:53;23.60;1.00
8664;DHT22;4369;47.842;13.096;2023-07-31T18:29:20;23.60;1.00
8664;DHT22;4369;47.842;13.096;2023-07-31T18:31:48;23.50;1.00
8664;DHT22;4369;47.842;13.096;2023-07-31T18:34:15;23.40;1.00
8664;DHT22;4369;47.842;13.096;2023-07-31T18:36:42;23.30;1.00
8664;DHT22;4369;47.842;13.096;2023-07-31T18:39:09;23.20;1.00
8664;DHT22;4369;47.842;13.096;2023-07-31T18:41:36;23.20;1.00
8664;DHT22;4369;47.842;13.096;2023-07-31T18:44:05;23.10;1.00
8664;DHT22;4369;47.842;13.096;2023-07-31T18:46:32;23.00;1.00
8664;DHT22;4369;47.842;13.096;2023-07-31T18:49:00;23.00;1.00
8664;DHT22;4369;47.842;13.096;2023-07-31T18:51:27;22.90;1.00
8664;DHT22;4369;47.842;13.096;2023-07-31T18:53:55;22.90;1.00
8664;DHT22;4369;47.842;13.096;2023-07-31T18:56:22;22.80;1.00
8664;DHT22;4369;47.842;13.096;2023-07-31T18:58:49;22.80;1.00
8664;DHT22;4369;47.842;13.096;2023-07-31T19:01:17;22.70;1.00
8664;DHT22;4369;47.842;13.096;2023-07-31T19:03:43;22.60;1.00
8664;DHT22;4369;47.842;13.096;2023-07-31T19:06:12;22.50;1.00
8664;DHT22;4369;47.842;13.096;2023-07-31T19:08:38;22.40;1.00
8664;DHT22;4369;47.842;13.096;2023-07-31T19:11:05;22.40;1.00
8664;DHT22;4369;47.842;13.096;2023-07-31T19:13:32;22.40;1.00
8664;DHT22;4369;47.842;13.096;2023-07-31T19:15:59;22.30;1.00
8664;DHT22;4369;47.842;13.096;2023-07-31T19:18:26;22.20;1.00
8664;DHT22;4369;47.842;13.096;2023-07-31T19:20:53;22.20;1.00
8664;DHT22;4369;47.842;13.096;2023-07-31T19:23:22;22.20;1.00
8664;DHT22;4369;47.842;13.096;2023-07-31T19:25:51;22.10;1.00
8664;DHT22;4369;47.842;13.096;2023-07-31T19:28:18;22.10;1.00